createdAt,value
2017-04-28T06:29:15.007Z,2824
2017-04-28T06:29:56.582Z,2824
2017-04-28T06:30:38.414Z,2840
2017-04-28T06:31:20.249Z,2872
2017-04-28T06:32:02.030Z,2900
2017-04-28T06:32:44.210Z,2940
2017-04-28T06:33:26.101Z,2980
2017-04-28T06:34:07.685Z,3008
2017-04-28T06:34:49.246Z,3028
2017-04-28T06:35:31.122Z,3028
2017-04-28T06:36:12.502Z,3016
2017-04-28T06:36:53.971Z,2984
2017-04-28T06:37:35.798Z,2956
2017-04-28T06:38:17.315Z,2924
2017-04-28T06:38:59.095Z,2900
2017-04-28T06:39:40.684Z,2880
2017-04-28T06:40:22.663Z,2864
2017-04-28T06:41:04.543Z,2856
2017-04-28T06:41:46.111Z,2832
2017-04-28T06:42:27.710Z,2812
2017-04-28T06:43:09.570Z,2776
2017-04-28T06:43:52.158Z,2740
2017-04-28T06:44:33.904Z,2696
2017-04-28T06:45:15.765Z,2656
2017-04-28T06:45:57.591Z,2628
2017-04-28T06:46:39.113Z,2624
2017-04-28T06:47:21.168Z,2640
2017-04-28T06:48:02.799Z,2664
2017-04-28T06:48:44.720Z,2712
2017-04-28T06:49:26.297Z,2776
2017-04-28T06:50:08.371Z,2844
2017-04-28T06:50:50.206Z,2924
2017-04-28T06:51:32.149Z,2984
2017-04-28T06:52:13.759Z,3020
2017-04-28T06:52:55.833Z,3040
2017-04-28T06:53:37.726Z,3044
2017-04-28T06:54:19.445Z,3024
2017-04-28T06:55:02.069Z,3020
2017-04-28T06:55:44.117Z,3028
2017-04-28T06:56:25.407Z,3040
2017-04-28T06:57:06.694Z,3060
2017-04-28T06:57:47.899Z,3088
2017-04-28T06:58:29.034Z,3120
2017-04-28T06:59:10.686Z,3192
2017-04-28T06:59:57.287Z,3248
2017-04-28T07:00:38.567Z,3344
2017-04-28T07:01:19.508Z,3448
2017-04-28T07:02:01.289Z,3560
2017-04-28T07:02:42.359Z,3668
2017-04-28T07:03:23.748Z,3776
2017-04-28T07:04:05.595Z,3864
2017-04-28T07:04:46.739Z,3940
2017-04-28T07:05:28.186Z,4008
2017-04-28T07:06:10.298Z,4080
2017-04-28T07:06:51.446Z,4156
2017-04-28T07:07:33.279Z,4244
2017-04-28T07:08:14.964Z,4356
2017-04-28T07:08:56.725Z,4468
2017-04-28T07:09:38.798Z,4576
2017-04-28T07:10:20.394Z,4684
2017-04-28T07:11:02.269Z,4756
2017-04-28T07:11:43.830Z,4804
2017-04-28T07:12:25.462Z,4840
2017-04-28T07:13:07.082Z,4884
2017-04-28T07:13:48.354Z,4936
2017-04-28T07:14:30.133Z,4988
2017-04-28T07:15:13.774Z,5040
2017-04-28T07:15:55.873Z,5076
2017-04-28T07:16:38.139Z,5100
2017-04-28T07:17:19.884Z,5092
2017-04-28T07:18:01.261Z,5064
2017-04-28T07:18:43.404Z,5036
2017-04-28T07:19:25.108Z,5012
2017-04-28T07:20:06.686Z,5008
2017-04-28T07:20:48.186Z,5044
2017-04-28T07:21:30.369Z,5036
2017-04-28T07:22:12.352Z,5092
2017-04-28T07:22:54.484Z,5152
2017-04-28T07:23:36.001Z,5216
2017-04-28T07:24:18.178Z,5288
2017-04-28T07:24:59.989Z,5380
2017-04-28T07:25:41.945Z,5424
2017-04-28T07:26:23.325Z,5540
2017-04-28T07:27:05.409Z,5636
2017-04-28T07:27:47.188Z,5720
2017-04-28T07:28:28.972Z,5800
2017-04-28T07:29:10.566Z,5848
2017-04-28T07:29:52.014Z,5844
2017-04-28T07:30:34.190Z,5796
2017-04-28T07:31:15.984Z,5732
2017-04-28T07:31:57.456Z,5660
2017-04-28T07:32:39.539Z,5620
2017-04-28T07:33:21.329Z,5616
2017-04-28T07:34:02.122Z,5648
2017-04-28T07:34:42.781Z,5704
2017-04-28T07:35:23.326Z,5780
2017-04-28T07:36:04.059Z,5860
2017-04-28T07:36:44.697Z,5916
2017-04-28T07:37:25.404Z,5968
2017-04-28T07:38:06.101Z,6004
2017-04-28T07:38:47.052Z,6060
2017-04-28T07:39:27.630Z,6112
2017-04-28T07:40:08.288Z,6192
2017-04-28T07:40:49.028Z,6296
2017-04-28T07:41:29.643Z,6420
2017-04-28T07:42:10.412Z,6552
2017-04-28T07:42:51.071Z,6708
2017-04-28T07:43:31.731Z,6864
2017-04-28T07:44:12.386Z,7004
2017-04-28T07:44:52.980Z,7092
2017-04-28T07:45:33.609Z,7104
2017-04-28T07:46:14.237Z,7036
2017-04-28T07:46:54.811Z,6900
2017-04-28T07:47:35.404Z,6732
2017-04-28T07:48:15.981Z,6568
2017-04-28T07:48:56.638Z,6424
2017-04-28T07:49:37.207Z,6316
2017-04-28T07:50:17.838Z,6240
2017-04-28T07:50:58.460Z,6208
2017-04-28T07:51:39.109Z,6232
2017-04-28T07:52:19.788Z,6324
2017-04-28T07:53:00.417Z,6452
2017-04-28T07:53:41.061Z,6620
2017-04-28T07:54:21.674Z,6812
2017-04-28T07:55:02.316Z,7128
2017-04-28T07:55:42.966Z,7252
2017-04-28T07:56:23.609Z,7388
2017-04-28T07:57:04.269Z,7592
2017-04-28T07:57:44.924Z,7788
2017-04-28T07:58:25.574Z,7976
2017-04-28T07:59:06.227Z,8136
2017-04-28T07:59:46.877Z,8276
2017-04-28T08:00:27.535Z,8416
2017-04-28T08:01:08.194Z,8556
2017-04-28T08:01:48.842Z,8688
2017-04-28T08:02:29.488Z,8808
2017-04-28T08:03:10.151Z,8904
2017-04-28T08:03:50.799Z,8952
2017-04-28T08:04:31.448Z,9012
2017-04-28T08:05:12.111Z,9048
2017-04-28T08:05:52.753Z,9076
2017-04-28T08:06:33.412Z,9080
2017-04-28T08:07:14.052Z,9100
2017-04-28T08:07:54.727Z,9056
2017-04-28T08:08:35.375Z,8984
2017-04-28T08:09:16.025Z,8868
2017-04-28T08:09:56.682Z,8788
2017-04-28T08:10:37.322Z,8768
2017-04-28T08:11:17.874Z,8776
2017-04-28T08:11:58.531Z,8804
2017-04-28T08:12:39.182Z,8816
2017-04-28T08:13:19.849Z,8812
2017-04-28T08:14:00.484Z,8820
2017-04-28T08:14:41.136Z,8784
2017-04-28T08:15:21.795Z,8824
2017-04-28T08:16:03.489Z,8908
2017-04-28T08:16:44.122Z,9108
2017-04-28T08:17:24.793Z,9424
2017-04-28T08:18:05.451Z,9716
2017-04-28T08:18:46.077Z,10040
2017-04-28T08:19:26.649Z,10308
2017-04-28T08:20:07.264Z,10548
2017-04-28T08:20:47.836Z,10760
2017-04-28T08:21:28.420Z,10868
2017-04-28T08:22:09.041Z,10964
2017-04-28T08:22:49.718Z,10988
2017-04-28T08:23:30.301Z,10980
2017-04-28T08:24:11.931Z,10980
2017-04-28T08:24:52.571Z,10840
2017-04-28T08:25:33.205Z,10784
2017-04-28T08:26:13.828Z,10672
2017-04-28T08:26:54.417Z,10592
2017-04-28T08:27:35.112Z,10532
2017-04-28T08:28:15.647Z,10500
2017-04-28T08:28:56.240Z,10472
2017-04-28T08:29:36.870Z,10396
2017-04-28T08:30:17.487Z,10240
2017-04-28T08:30:58.152Z,10072
2017-04-28T08:31:38.797Z,9900
2017-04-28T08:32:19.527Z,9736
2017-04-28T08:33:00.198Z,9544
2017-04-28T08:33:40.952Z,9292
2017-04-28T08:34:21.715Z,8936
2017-04-28T08:35:02.486Z,8480
2017-04-28T08:35:43.141Z,8052
2017-04-28T08:36:23.882Z,7676
2017-04-28T08:37:04.534Z,7340
2017-04-28T08:37:45.187Z,7016
2017-04-28T08:38:26.232Z,6712
2017-04-28T08:39:06.892Z,6436
2017-04-28T08:39:47.448Z,6216
2017-04-28T08:40:28.108Z,6008
2017-04-28T08:41:08.766Z,5816
2017-04-28T08:41:49.324Z,5632
2017-04-28T08:42:29.964Z,5444
2017-04-28T08:43:10.624Z,5248
2017-04-28T08:43:51.175Z,5136
2017-04-28T08:44:31.812Z,5028
2017-04-28T08:45:13.504Z,4944
2017-04-28T08:45:54.074Z,4880
2017-04-28T08:46:34.691Z,4872
2017-04-28T08:47:15.363Z,4888
2017-04-28T08:47:55.947Z,4956
2017-04-28T08:48:36.587Z,5060
2017-04-28T08:49:17.206Z,5156
2017-04-28T08:49:57.760Z,5220
2017-04-28T08:50:38.449Z,5268
2017-04-28T08:51:19.077Z,5296
2017-04-28T08:51:59.645Z,5320
2017-04-28T08:52:40.246Z,5336
2017-04-28T08:53:20.923Z,5352
2017-04-28T08:54:01.489Z,5400
2017-04-28T08:54:42.105Z,5472
2017-04-28T08:55:23.708Z,5552
2017-04-28T08:56:04.289Z,5696
2017-04-28T08:56:44.968Z,5736
2017-04-28T08:57:25.559Z,5836
2017-04-28T08:58:06.217Z,5936
2017-04-28T08:58:46.789Z,6048
2017-04-28T08:59:27.465Z,6128
2017-04-28T09:00:08.072Z,6164
2017-04-28T09:00:48.820Z,6176
2017-04-28T09:01:29.410Z,6192
2017-04-28T09:02:10.079Z,6232
2017-04-28T09:02:50.872Z,6232
2017-04-28T09:03:31.525Z,6276
2017-04-28T09:04:12.060Z,6344
2017-04-28T09:04:52.673Z,6476
2017-04-28T09:05:33.324Z,6504
2017-04-28T09:06:13.978Z,6592
2017-04-28T09:06:54.657Z,6776
2017-04-28T09:07:35.290Z,7024
2017-04-28T09:08:16.960Z,7236
2017-04-28T09:08:57.614Z,7516
2017-04-28T09:09:38.284Z,7868
2017-04-28T09:10:18.915Z,8244
2017-04-28T09:10:59.574Z,8660
2017-04-28T09:11:40.248Z,9052
2017-04-28T09:12:20.880Z,9504
2017-04-28T09:13:01.527Z,9868
2017-04-28T09:13:42.177Z,10228
2017-04-28T09:14:22.862Z,10404
2017-04-28T09:15:03.440Z,10504
2017-04-28T09:15:44.013Z,10552
2017-04-28T09:16:24.626Z,10556
2017-04-28T09:17:05.294Z,10552
2017-04-28T09:17:45.865Z,10592
2017-04-28T09:18:26.522Z,10660
2017-04-28T09:19:07.149Z,10752
2017-04-28T09:19:47.726Z,10884
2017-04-28T09:20:28.342Z,10720
2017-04-28T09:21:08.994Z,10804
2017-04-28T09:21:50.566Z,10908
2017-04-28T09:22:31.279Z,10912
2017-04-28T09:23:11.892Z,10936
2017-04-28T09:23:52.537Z,10908
2017-04-28T09:24:33.231Z,10848
2017-04-28T09:25:13.842Z,10804
2017-04-28T09:25:54.494Z,10784
2017-04-28T09:26:35.169Z,10840
2017-04-28T09:27:15.825Z,11048
2017-04-28T09:27:56.455Z,11268
2017-04-28T09:28:37.116Z,11488
2017-04-28T09:29:17.820Z,11656
2017-04-28T09:29:58.415Z,11836
2017-04-28T09:30:39.022Z,11892
2017-04-28T09:31:19.618Z,11896
2017-04-28T09:32:00.372Z,11824
2017-04-28T09:32:40.989Z,11684
2017-04-28T09:33:21.652Z,11620
2017-04-28T09:34:02.329Z,11584
2017-04-28T09:34:42.981Z,11612
2017-04-28T09:35:23.643Z,11680
2017-04-28T09:36:04.304Z,11704
2017-04-28T09:36:44.941Z,11784
2017-04-28T09:37:25.619Z,11796
2017-04-28T09:38:06.283Z,11748
2017-04-28T09:38:46.922Z,11704
2017-04-28T09:39:27.557Z,11512
2017-04-28T09:40:08.208Z,11268
2017-04-28T09:40:48.868Z,11040
2017-04-28T09:41:29.520Z,10944
2017-04-28T09:42:10.169Z,10736
2017-04-28T09:42:50.839Z,10556
2017-04-28T09:43:31.629Z,10420
2017-04-28T09:44:12.225Z,10196
2017-04-28T09:44:52.939Z,10024
2017-04-28T09:45:33.534Z,9876
2017-04-28T09:46:14.184Z,9596
2017-04-28T09:46:54.744Z,9308
2017-04-28T09:47:35.390Z,9076
2017-04-28T09:48:16.041Z,8832
2017-04-28T09:48:56.625Z,8644
2017-04-28T09:49:37.260Z,8448
2017-04-28T09:50:17.893Z,8252
2017-04-28T09:50:58.465Z,7964
2017-04-28T09:51:39.098Z,7616
2017-04-28T09:52:19.757Z,7308
2017-04-28T09:53:00.413Z,7024
2017-04-28T09:53:40.976Z,6764
2017-04-28T09:54:21.605Z,6584
2017-04-28T09:55:02.267Z,6456
2017-04-28T09:55:42.918Z,6348
2017-04-28T09:56:23.571Z,6200
2017-04-28T09:57:04.232Z,6032
2017-04-28T09:57:44.879Z,5784
2017-04-28T09:58:25.525Z,5760
2017-04-28T09:59:06.189Z,5812
2017-04-28T09:59:46.736Z,5792
2017-04-28T10:00:27.329Z,5808
2017-04-28T10:01:07.963Z,5896
2017-04-28T10:01:48.696Z,5992
2017-04-28T10:02:29.294Z,6092
2017-04-28T10:03:09.946Z,6192
2017-04-28T10:03:50.562Z,6244
2017-04-28T10:04:31.201Z,6328
2017-04-28T10:05:11.807Z,6400
2017-04-28T10:05:52.471Z,6364
2017-04-28T10:06:33.056Z,6332
2017-04-28T10:07:13.702Z,6268
2017-04-28T10:07:54.263Z,6244
2017-04-28T10:08:34.872Z,6300
2017-04-28T10:09:15.555Z,6364
2017-04-28T10:09:56.226Z,6368
2017-04-28T10:10:36.779Z,6372
2017-04-28T10:11:17.392Z,6340
2017-04-28T10:11:58.058Z,6324
2017-04-28T10:12:38.726Z,6220
2017-04-28T10:13:19.300Z,6140
2017-04-28T10:13:59.876Z,6160
2017-04-28T10:14:40.472Z,6040
2017-04-28T10:15:21.127Z,5980
2017-04-28T10:16:01.696Z,5980
2017-04-28T10:16:42.314Z,6068
2017-04-28T10:17:23.009Z,6172
2017-04-28T10:18:03.644Z,6208
2017-04-28T10:18:44.210Z,6224
2017-04-28T10:19:25.817Z,6236
2017-04-28T10:20:06.460Z,6280
2017-04-28T10:20:47.025Z,6420
2017-04-28T10:21:27.593Z,6488
2017-04-28T10:22:08.237Z,6524
2017-04-28T10:22:49.002Z,6524
2017-04-28T10:23:29.680Z,6612
2017-04-28T10:24:10.266Z,6800
2017-04-28T10:24:50.855Z,7004
2017-04-28T10:25:31.450Z,7184
2017-04-28T10:26:12.084Z,7156
2017-04-28T10:26:52.773Z,6960
2017-04-28T10:27:33.391Z,6796
2017-04-28T10:28:14.091Z,6612
2017-04-28T10:28:54.741Z,6448
2017-04-28T10:29:35.432Z,6336
2017-04-28T10:30:16.105Z,6252
2017-04-28T10:30:56.764Z,6172
2017-04-28T10:31:37.409Z,6064
2017-04-28T10:32:18.062Z,6004
2017-04-28T10:32:58.714Z,5976
2017-04-28T10:33:39.365Z,5956
2017-04-28T10:34:20.018Z,5932
2017-04-28T10:35:00.654Z,5924
2017-04-28T10:35:41.418Z,5968
2017-04-28T10:36:22.399Z,6032
2017-04-28T10:37:03.216Z,6076
2017-04-28T10:37:43.837Z,6024
2017-04-28T10:38:24.597Z,5976
2017-04-28T10:39:05.419Z,5908
2017-04-28T10:39:46.210Z,5824
2017-04-28T10:40:27.089Z,5756
2017-04-28T10:41:07.828Z,5684
2017-04-28T10:41:48.465Z,5600
2017-04-28T10:42:29.127Z,5532
2017-04-28T10:43:09.673Z,5492
2017-04-28T10:43:50.393Z,5468
2017-04-28T10:44:31.142Z,5452
2017-04-28T10:45:11.844Z,5436
2017-04-28T10:45:52.597Z,5440
2017-04-28T10:46:33.276Z,5444
2017-04-28T10:47:14.062Z,5468
2017-04-28T10:47:54.818Z,5504
2017-04-28T10:48:35.600Z,5556
2017-04-28T10:49:16.333Z,5664
2017-04-28T10:49:56.895Z,5828
2017-04-28T10:50:37.654Z,5980
2017-04-28T10:51:18.391Z,6140
2017-04-28T10:51:59.150Z,6300
2017-04-28T10:52:39.722Z,6432
2017-04-28T10:53:20.599Z,6620
2017-04-28T10:54:01.371Z,6776
2017-04-28T10:54:42.068Z,6936
2017-04-28T10:55:22.639Z,7052
2017-04-28T10:56:03.487Z,7116
2017-04-28T10:56:44.233Z,7172
2017-04-28T10:57:24.996Z,7200
2017-04-28T10:58:05.612Z,7228
2017-04-28T10:58:46.322Z,7264
2017-04-28T10:59:27.045Z,7232
2017-04-28T11:00:07.780Z,7156
2017-04-28T11:00:48.532Z,7088
2017-04-28T11:01:29.286Z,7092
2017-04-28T11:02:10.045Z,7216
2017-04-28T11:02:50.610Z,7492
2017-04-28T11:03:31.320Z,7832
2017-04-28T11:04:12.096Z,8048
2017-04-28T11:04:52.756Z,8308
2017-04-28T11:05:33.326Z,8572
2017-04-28T11:06:13.998Z,9036
2017-04-28T11:06:54.707Z,9448
2017-04-28T11:07:35.368Z,9612
2017-04-28T11:08:15.974Z,9852
2017-04-28T11:08:56.651Z,10236
2017-04-28T11:09:37.320Z,10884
2017-04-28T11:10:17.994Z,11256
2017-04-28T11:10:59.079Z,11580
2017-04-28T11:11:39.832Z,11788
2017-04-28T11:12:20.652Z,11768
2017-04-28T11:13:01.407Z,11724
2017-04-28T11:13:42.059Z,11864
2017-04-28T11:14:22.750Z,12048
2017-04-28T11:15:03.628Z,12000
2017-04-28T11:15:44.343Z,11712
2017-04-28T11:16:25.171Z,11548
2017-04-28T11:17:05.801Z,11756
2017-04-28T11:17:46.649Z,11736
2017-04-28T11:18:27.352Z,11616
2017-04-28T11:19:07.912Z,11528
2017-04-28T11:19:48.659Z,11596
2017-04-28T11:20:29.615Z,11444
2017-04-28T11:21:10.395Z,11520
2017-04-28T11:21:51.022Z,11860
2017-04-28T11:22:31.779Z,12256
2017-04-28T11:23:12.534Z,12780
2017-04-28T11:23:53.433Z,12820
2017-04-28T11:24:34.264Z,12900
2017-04-28T11:25:15.001Z,12880
2017-04-28T11:25:55.657Z,12772
2017-04-28T11:26:36.625Z,12656
2017-04-28T11:27:17.401Z,12468
2017-04-28T11:27:58.226Z,12424
2017-04-28T11:28:38.982Z,12288
2017-04-28T11:29:19.779Z,12164
2017-04-28T11:30:00.434Z,12088
2017-04-28T11:30:41.223Z,12076
2017-04-28T11:31:22.102Z,12048
2017-04-28T11:32:02.765Z,12076
2017-04-28T11:32:43.584Z,12112
2017-04-28T11:33:27.210Z,12132
2017-04-28T11:34:07.983Z,12180
2017-04-28T11:34:48.707Z,12380
2017-04-28T11:35:29.584Z,12504
2017-04-28T11:36:10.475Z,13768
2017-04-28T11:36:51.266Z,12440
2017-04-28T11:37:32.181Z,13000
2017-04-28T11:38:12.934Z,11888
2017-04-28T11:38:53.699Z,11560
2017-04-28T11:39:34.444Z,10952
2017-04-28T11:40:15.103Z,10352
2017-04-28T11:40:55.954Z,10016
2017-04-28T11:41:36.750Z,10092
2017-04-28T11:42:17.464Z,9468
2017-04-28T11:42:58.136Z,9272
2017-04-28T11:43:38.893Z,9096
2017-04-28T11:44:19.630Z,9120
2017-04-28T11:45:00.210Z,8992
2017-04-28T11:45:40.833Z,9008
2017-04-28T11:46:21.635Z,9300
2017-04-28T11:47:02.569Z,9764
2017-04-28T11:47:43.298Z,9796
2017-04-28T11:48:23.852Z,9756
2017-04-28T11:49:04.460Z,10544
2017-04-28T11:49:45.057Z,9764
2017-04-28T11:50:25.710Z,9072
2017-04-28T11:51:06.280Z,8744
2017-04-28T11:51:47.068Z,8432
2017-04-28T11:52:27.670Z,9012
2017-04-28T11:53:08.322Z,8908
2017-04-28T11:53:48.894Z,9524
2017-04-28T11:54:29.468Z,9692
2017-04-28T11:55:10.105Z,9508
2017-04-28T11:55:50.825Z,8976
2017-04-28T11:56:31.392Z,9020
2017-04-28T11:57:12.106Z,8576
2017-04-28T11:57:52.793Z,8608
2017-04-28T11:58:33.483Z,8592
2017-04-28T11:59:14.089Z,8472
2017-04-28T11:59:54.704Z,8296
2017-04-28T12:00:35.394Z,8468
2017-04-28T12:01:16.036Z,10592
2017-04-28T12:01:56.689Z,8488
2017-04-28T12:02:37.345Z,8272
2017-04-28T12:03:17.995Z,8136
2017-04-28T12:03:58.657Z,8200
2017-04-28T12:04:39.294Z,8064
2017-04-28T12:05:19.851Z,8236
2017-04-28T12:06:00.459Z,8612
2017-04-28T12:06:41.059Z,8736
2017-04-28T12:07:21.704Z,8976
2017-04-28T12:08:02.271Z,8740
2017-04-28T12:08:42.863Z,8644
2017-04-28T12:09:23.460Z,8728
2017-04-28T12:10:04.118Z,8640
2017-04-28T12:10:44.681Z,8620
2017-04-28T12:11:25.283Z,8692
2017-04-28T12:12:05.901Z,8732
2017-04-28T12:12:46.522Z,8840
2017-04-28T12:13:27.153Z,9172
2017-04-28T12:14:07.765Z,9352
2017-04-28T12:14:48.369Z,9696
2017-04-28T12:15:29.029Z,10144
2017-04-28T12:16:09.605Z,11392
2017-04-28T12:16:50.184Z,9952
2017-04-28T12:17:30.796Z,9544
2017-04-28T12:18:11.439Z,9492
2017-04-28T12:18:52.021Z,10060
2017-04-28T12:19:32.698Z,9284
2017-04-28T12:20:13.306Z,9188
2017-04-28T12:20:53.956Z,10076
2017-04-28T12:21:34.609Z,9504
2017-04-28T12:22:15.248Z,9780
2017-04-28T12:22:56.025Z,9976
2017-04-28T12:23:36.772Z,8672
2017-04-28T12:24:18.345Z,8736
2017-04-28T12:24:58.986Z,8916
2017-04-28T12:25:39.644Z,9016
2017-04-28T12:26:20.209Z,9340
2017-04-28T12:27:00.855Z,9856
2017-04-28T12:27:41.497Z,9756
2017-04-28T12:28:22.473Z,9256
2017-04-28T12:29:03.083Z,9360
2017-04-28T12:29:43.762Z,9632
2017-04-28T12:30:24.336Z,9716
2017-04-28T12:31:04.967Z,10188
2017-04-28T12:31:45.618Z,10300
2017-04-28T12:32:26.277Z,10484
2017-04-28T12:33:06.936Z,10320
2017-04-28T12:33:47.589Z,10496
2017-04-28T12:34:28.242Z,10368
2017-04-28T12:35:08.915Z,10508
2017-04-28T12:35:49.553Z,10664
2017-04-28T12:36:30.112Z,11024
2017-04-28T12:37:10.786Z,11332
2017-04-28T12:37:51.506Z,11592
2017-04-28T12:38:32.084Z,11940
2017-04-28T12:39:12.709Z,12180
2017-04-28T12:39:53.412Z,12184
2017-04-28T12:40:34.039Z,12336
2017-04-28T12:41:14.690Z,12676
2017-04-28T12:41:55.321Z,12324
2017-04-28T12:42:35.972Z,12408
2017-04-28T12:43:16.616Z,12708
2017-04-28T12:43:57.279Z,12156
2017-04-28T12:44:37.932Z,11964
2017-04-28T12:45:18.497Z,13328
2017-04-28T12:45:59.104Z,11412
2017-04-28T12:46:40.709Z,11188
2017-04-28T12:47:21.422Z,11220
2017-04-28T12:48:01.994Z,11076
2017-04-28T12:48:42.631Z,11144
2017-04-28T12:49:23.231Z,11512
2017-04-28T12:50:03.871Z,11136
2017-04-28T12:50:44.419Z,11096
2017-04-28T12:51:25.075Z,10908
2017-04-28T12:52:05.726Z,10676
2017-04-28T12:52:46.312Z,10460
2017-04-28T12:53:26.950Z,10200
2017-04-28T12:54:07.574Z,9948
2017-04-28T12:54:48.158Z,9772
2017-04-28T12:55:28.779Z,9536
2017-04-28T12:56:09.444Z,9504
2017-04-28T12:56:50.092Z,9408
2017-04-28T12:57:30.744Z,9288
2017-04-28T12:58:11.414Z,9096
2017-04-28T12:58:52.056Z,8896
2017-04-28T12:59:32.711Z,8776
2017-04-28T13:00:13.426Z,8756
2017-04-28T13:00:54.007Z,8812
2017-04-28T13:01:34.631Z,8788
2017-04-28T13:02:15.313Z,8900
2017-04-28T13:02:55.899Z,8864
2017-04-28T13:03:36.499Z,8808
2017-04-28T13:04:17.178Z,8864
2017-04-28T13:04:57.849Z,9008
2017-04-28T13:05:38.475Z,9232
2017-04-28T13:06:19.131Z,9412
2017-04-28T13:06:59.769Z,9716
2017-04-28T13:07:40.431Z,9892
2017-04-28T13:08:21.079Z,10100
2017-04-28T13:09:01.744Z,11036
2017-04-28T13:09:42.397Z,10292
2017-04-28T13:10:23.048Z,10364
2017-04-28T13:11:03.702Z,9808
2017-04-28T13:11:44.279Z,9648
2017-04-28T13:12:24.919Z,9376
2017-04-28T13:13:05.558Z,9220
2017-04-28T13:13:46.197Z,9116
2017-04-28T13:14:26.859Z,9048
2017-04-28T13:15:07.433Z,8992
2017-04-28T13:15:48.013Z,8908
2017-04-28T13:16:28.601Z,8836
2017-04-28T13:17:09.268Z,8768
2017-04-28T13:17:49.864Z,8700
2017-04-28T13:18:30.533Z,8640
2017-04-28T13:19:11.117Z,8604
2017-04-28T13:19:51.768Z,8560
2017-04-28T13:20:32.338Z,8528
2017-04-28T13:21:13.015Z,8572
2017-04-28T13:21:53.596Z,8744
2017-04-28T13:22:34.249Z,9292
2017-04-28T13:23:14.827Z,9884
2017-04-28T13:23:55.510Z,10064
2017-04-28T13:24:36.100Z,10488
2017-04-28T13:25:16.855Z,9432
2017-04-28T13:25:57.516Z,9152
2017-04-28T13:26:38.170Z,9060
2017-04-28T13:27:18.822Z,8980
2017-04-28T13:27:59.470Z,8980
2017-04-28T13:28:41.898Z,8984
2017-04-28T13:29:22.517Z,9076
2017-04-28T13:30:03.169Z,8900
2017-04-28T13:30:43.729Z,8592
2017-04-28T13:31:24.529Z,8860
2017-04-28T13:32:05.142Z,7884
2017-04-28T13:32:45.719Z,7652
2017-04-28T13:33:26.338Z,7292
2017-04-28T13:34:06.984Z,7052
2017-04-28T13:34:47.574Z,6640
2017-04-28T13:35:28.209Z,6428
2017-04-28T13:36:08.850Z,6396
2017-04-28T13:36:49.411Z,6268
2017-04-28T13:37:30.016Z,6336
2017-04-28T13:38:10.698Z,6064
2017-04-28T13:38:51.353Z,6044
2017-04-28T13:39:31.926Z,6056
2017-04-28T13:40:12.512Z,6112
2017-04-28T13:40:53.120Z,6180
2017-04-28T13:41:33.769Z,6276
2017-04-28T13:42:14.420Z,6408
2017-04-28T13:42:55.065Z,6572
2017-04-28T13:43:35.721Z,6704
2017-04-28T13:44:16.470Z,6868
2017-04-28T13:44:57.128Z,7072
2017-04-28T13:45:37.782Z,7256
2017-04-28T13:46:18.434Z,7472
2017-04-28T13:46:59.092Z,7656
2017-04-28T13:47:39.768Z,7840
2017-04-28T13:48:20.313Z,8036
2017-04-28T13:49:00.945Z,8120
2017-04-28T13:49:41.589Z,8264
2017-04-28T13:50:22.219Z,8048
2017-04-28T13:51:02.903Z,7860
2017-04-28T13:51:43.553Z,7700
2017-04-28T13:52:24.222Z,7644
2017-04-28T13:53:04.930Z,7636
2017-04-28T13:53:45.509Z,7748
2017-04-28T13:54:26.164Z,7936
2017-04-28T13:55:07.310Z,8180
2017-04-28T13:55:47.934Z,8496
2017-04-28T13:56:28.533Z,8732
2017-04-28T13:57:09.194Z,8956
2017-04-28T13:57:49.846Z,9136
2017-04-28T13:58:30.607Z,9280
2017-04-28T13:59:11.250Z,9448
2017-04-28T13:59:51.897Z,9444
2017-04-28T14:00:32.480Z,9444
2017-04-28T14:01:13.101Z,9432
2017-04-28T14:01:53.798Z,9488
2017-04-28T14:02:34.382Z,9432
2017-04-28T14:03:14.957Z,9448
2017-04-28T14:03:55.615Z,9464
2017-04-28T14:04:36.185Z,9528
2017-04-28T14:05:16.816Z,9284
2017-04-28T14:05:57.476Z,9264
2017-04-28T14:06:38.055Z,9188
2017-04-28T14:07:18.734Z,9084
2017-04-28T14:07:59.430Z,9032
2017-04-28T14:08:40.081Z,8916
2017-04-28T14:09:20.663Z,8828
2017-04-28T14:10:01.244Z,8676
2017-04-28T14:10:42.860Z,8564
2017-04-28T14:11:23.440Z,8468
2017-04-28T14:12:04.068Z,8148
2017-04-28T14:12:44.642Z,7892
2017-04-28T14:13:25.220Z,7704
2017-04-28T14:14:05.916Z,7556
2017-04-28T14:14:46.570Z,7440
2017-04-28T14:15:27.159Z,7340
2017-04-28T14:16:07.860Z,7276
2017-04-28T14:16:48.534Z,7160
2017-04-28T14:17:29.190Z,6960
2017-04-28T14:18:09.840Z,6780
2017-04-28T14:18:50.504Z,6612
2017-04-28T14:19:31.141Z,6488
2017-04-28T14:20:11.824Z,6416
2017-04-28T14:20:52.453Z,6416
2017-04-28T14:21:33.049Z,6500
2017-04-28T14:22:13.726Z,6668
2017-04-28T14:22:54.309Z,6836
2017-04-28T14:23:34.971Z,7028
2017-04-28T14:24:15.539Z,7128
2017-04-28T14:24:56.112Z,7212
2017-04-28T14:25:36.706Z,7276
2017-04-28T14:26:18.389Z,7308
2017-04-28T14:26:59.041Z,7344
2017-04-28T14:27:39.692Z,7376
2017-04-28T14:28:20.355Z,7432
2017-04-28T14:29:01.005Z,7424
2017-04-28T14:29:41.666Z,7468
2017-04-28T14:30:22.298Z,7460
2017-04-28T14:31:02.973Z,7448
2017-04-28T14:31:43.799Z,7448
2017-04-28T14:32:24.443Z,7412
2017-04-28T14:33:05.122Z,7440
2017-04-28T14:33:45.687Z,7500
2017-04-28T14:34:26.332Z,7508
2017-04-28T14:35:06.989Z,7584
2017-04-28T14:35:47.638Z,7656
2017-04-28T14:36:28.218Z,7728
2017-04-28T14:37:08.827Z,7816
2017-04-28T14:37:49.487Z,7888
2017-04-28T14:38:30.054Z,7952
2017-04-28T14:39:10.793Z,8020
2017-04-28T14:39:51.444Z,8072
2017-04-28T14:40:32.093Z,8156
2017-04-28T14:41:12.720Z,8252
2017-04-28T14:41:53.295Z,8396
2017-04-28T14:42:33.847Z,8512
2017-04-28T14:43:14.427Z,8652
2017-04-28T14:43:55.027Z,8888
2017-04-28T14:44:35.712Z,8844
2017-04-28T14:45:16.342Z,9100
2017-04-28T14:45:56.966Z,9608
2017-04-28T14:46:37.625Z,10108
2017-04-28T14:47:18.320Z,10284
2017-04-28T14:47:58.977Z,10228
2017-04-28T14:48:39.527Z,9724
2017-04-28T14:49:20.173Z,10108
2017-04-28T14:50:01.470Z,10116
2017-04-28T14:50:42.075Z,10220
2017-04-28T14:51:22.743Z,10136
2017-04-28T14:52:03.433Z,9928
2017-04-28T14:52:45.078Z,9288
2017-04-28T14:53:25.665Z,9300
2017-04-28T14:54:06.314Z,9744
2017-04-28T14:54:46.947Z,9584
2017-04-28T14:55:27.506Z,9080
2017-04-28T14:56:08.087Z,9704
2017-04-28T14:56:48.693Z,9688
2017-04-28T14:57:29.314Z,9752
2017-04-28T14:58:09.946Z,9640
2017-04-28T14:58:55.606Z,9504
2017-04-28T14:59:37.154Z,8924
2017-04-28T15:00:17.859Z,8044
2017-04-28T15:00:58.445Z,7952
2017-04-28T15:01:39.044Z,7940
2017-04-28T15:02:19.719Z,7928
2017-04-28T15:03:00.317Z,7832
2017-04-28T15:03:42.923Z,7792
2017-04-28T15:04:23.515Z,7700
2017-04-28T15:05:04.079Z,7644
2017-04-28T15:05:48.392Z,7580
2017-04-28T15:06:29.890Z,7580
2017-04-28T15:07:10.454Z,7620
2017-04-28T15:07:51.177Z,7520
2017-04-28T15:08:31.751Z,7500
2017-04-28T15:09:17.678Z,7432
2017-04-28T15:09:58.239Z,7324
2017-04-28T15:10:39.510Z,7204
2017-04-28T15:11:21.294Z,7100
2017-04-28T15:12:01.952Z,7004
2017-04-28T15:12:42.566Z,6940
2017-04-28T15:13:23.227Z,6868
2017-04-28T15:14:03.872Z,6708
2017-04-28T15:14:44.661Z,6512
2017-04-28T15:15:25.297Z,6468
2017-04-28T15:16:05.942Z,5956
2017-04-28T15:16:46.667Z,5612
2017-04-28T15:17:27.428Z,5208
2017-04-28T15:18:08.083Z,4852
2017-04-28T15:18:48.751Z,4588
2017-04-28T15:19:29.512Z,4372
2017-04-28T15:20:10.179Z,4212
2017-04-28T15:20:50.820Z,4104
2017-04-28T15:21:32.524Z,4064
2017-04-28T15:22:13.390Z,4092
2017-04-28T15:22:54.048Z,4128
2017-04-28T15:23:35.489Z,4192
2017-04-28T15:24:16.137Z,4200
2017-04-28T15:24:56.796Z,4140
2017-04-28T15:25:37.535Z,4060
2017-04-28T15:26:18.230Z,3984
2017-04-28T15:26:58.886Z,3876
2017-04-28T15:27:39.567Z,3736
2017-04-28T15:28:20.395Z,3588